Time,TemperatureF,DewpointF,PressureIn,WindDirection,WindDirectionDegrees,WindSpeedMPH,WindSpeedGustMPH,Humidity,HourlyPrecipIn,Conditions,Clouds,dailyrainin,SoftwareType,DateUTC
2013-04-28 00:12:00,70.0,67.0,-100.00,SSW,204,2.0,5.0,89,0.00,,,0.00,,2013-04-28 05:12:00,
2013-04-28 00:22:00,70.0,67.0,-100.00,SSW,204,2.0,5.0,89,0.00,,,0.00,,2013-04-28 05:22:00,
2013-04-28 00:32:00,70.0,67.0,-100.00,SSW,204,2.0,5.0,89,0.00,,,0.00,,2013-04-28 05:32:00,
2013-04-28 00:42:00,70.0,67.0,-100.00,SSW,204,2.0,5.0,89,0.00,,,0.00,,2013-04-28 05:42:00,
2013-04-28 01:12:00,69.0,67.0,-100.00,SSW,206,5.0,7.0,92,0.00,,,0.00,,2013-04-28 06:12:00,
2013-04-28 01:21:00,69.0,67.0,-100.00,SSW,206,5.0,7.0,92,0.00,,,0.00,,2013-04-28 06:21:00,
2013-04-28 01:32:00,69.0,67.0,-100.00,SSW,206,5.0,7.0,92,0.00,,,0.00,,2013-04-28 06:32:00,
2013-04-28 01:42:00,69.0,67.0,-100.00,SSW,206,5.0,7.0,92,0.00,,,0.00,,2013-04-28 06:42:00,
2013-04-28 02:11:00,69.0,67.0,-100.00,SSW,200,5.0,8.0,94,0.00,,,0.00,,2013-04-28 07:11:00,
2013-04-28 02:21:00,69.0,67.0,-100.00,SSW,200,5.0,8.0,94,0.00,,,0.00,,2013-04-28 07:21:00,
2013-04-28 02:32:00,69.0,67.0,-100.00,SSW,200,5.0,8.0,94,0.00,,,0.00,,2013-04-28 07:32:00,
2013-04-28 02:42:00,69.0,67.0,-100.00,SSW,200,5.0,8.0,94,0.00,,,0.00,,2013-04-28 07:42:00,
2013-04-28 03:11:00,68.0,67.0,-100.00,SW,214,3.0,6.0,96,0.00,,,0.00,,2013-04-28 08:11:00,
2013-04-28 03:21:00,68.0,67.0,-100.00,SW,214,3.0,6.0,96,0.00,,,0.00,,2013-04-28 08:21:00,
2013-04-28 03:32:00,68.0,67.0,-100.00,SW,214,3.0,6.0,96,0.00,,,0.00,,2013-04-28 08:32:00,
2013-04-28 03:42:00,68.0,67.0,-100.00,SW,214,3.0,6.0,96,0.00,,,0.00,,2013-04-28 08:42:00,
2013-04-28 04:11:00,68.0,66.0,-100.00,SW,215,2.0,4.0,94,0.00,,,0.00,,2013-04-28 09:11:00,
2013-04-28 04:21:00,68.0,66.0,-100.00,SW,215,2.0,4.0,94,0.00,,,0.00,,2013-04-28 09:21:00,
2013-04-28 04:33:00,68.0,66.0,-100.00,SW,215,2.0,4.0,94,0.00,,,0.00,,2013-04-28 09:33:00,
2013-04-28 04:42:00,68.0,66.0,-100.00,SW,215,2.0,4.0,94,0.00,,,0.00,,2013-04-28 09:42:00,
2013-04-28 05:12:00,66.0,65.0,-100.00,NNW,332,1.0,2.0,96,0.00,,,0.00,,2013-04-28 10:12:00,
2013-04-28 05:22:00,66.0,65.0,-100.00,NNW,332,1.0,2.0,96,0.00,,,0.00,,2013-04-28 10:22:00,
2013-04-28 05:32:00,66.0,65.0,-100.00,NNW,332,1.0,2.0,96,0.00,,,0.00,,2013-04-28 10:32:00,
2013-04-28 05:42:00,66.0,65.0,-100.00,NNW,332,1.0,2.0,96,0.00,,,0.00,,2013-04-28 10:42:00,
2013-04-28 06:11:00,66.0,65.0,-100.00,SSW,192,3.0,4.0,97,0.00,,,0.00,,2013-04-28 11:11:00,
2013-04-28 06:22:00,66.0,65.0,-100.00,SSW,192,3.0,4.0,97,0.00,,,0.00,,2013-04-28 11:22:00,
2013-04-28 06:32:00,66.0,65.0,-100.00,SSW,192,3.0,4.0,97,0.00,,,0.00,,2013-04-28 11:32:00,
2013-04-28 06:42:00,66.0,65.0,-100.00,SSW,192,3.0,4.0,97,0.00,,,0.00,,2013-04-28 11:42:00,
2013-04-28 07:12:00,67.0,66.0,-100.00,SW,217,5.0,9.0,97,0.00,,,0.00,,2013-04-28 12:12:00,
2013-04-28 07:21:00,67.0,66.0,-100.00,SW,217,5.0,9.0,97,0.00,,,0.00,,2013-04-28 12:21:00,
2013-04-28 07:32:00,67.0,66.0,-100.00,SW,217,5.0,9.0,97,0.00,,,0.00,,2013-04-28 12:32:00,
2013-04-28 07:42:00,67.0,66.0,-100.00,SW,217,5.0,9.0,97,0.00,,,0.00,,2013-04-28 12:42:00,
2013-04-28 08:11:00,67.0,66.0,-100.00,SW,218,6.0,9.0,95,0.00,,,0.00,,2013-04-28 13:11:00,
2013-04-28 08:21:00,67.0,66.0,-100.00,SW,218,6.0,9.0,95,0.00,,,0.00,,2013-04-28 13:21:00,
2013-04-28 08:32:00,67.0,66.0,-100.00,SW,218,6.0,9.0,95,0.00,,,0.00,,2013-04-28 13:32:00,
2013-04-28 08:42:00,67.0,66.0,-100.00,SW,218,6.0,9.0,95,0.00,,,0.00,,2013-04-28 13:42:00,
2013-04-28 09:11:00,68.0,66.0,-100.00,SW,235,4.0,7.0,93,0.00,,,0.00,,2013-04-28 14:11:00,
2013-04-28 09:22:00,68.0,66.0,-100.00,SW,235,4.0,7.0,93,0.00,,,0.00,,2013-04-28 14:22:00,
2013-04-28 09:32:00,68.0,66.0,-100.00,SW,235,4.0,7.0,93,0.00,,,0.00,,2013-04-28 14:32:00,
2013-04-28 09:42:00,68.0,66.0,-100.00,SW,235,4.0,7.0,93,0.00,,,0.00,,2013-04-28 14:42:00,
2013-04-28 10:12:00,69.0,65.0,-100.00,WNW,284,4.0,9.0,87,0.00,,,0.00,,2013-04-28 15:12:00,
2013-04-28 10:21:00,69.0,65.0,-100.00,WNW,284,4.0,9.0,87,0.00,,,0.00,,2013-04-28 15:21:00,
2013-04-28 10:32:00,69.0,65.0,-100.00,WNW,284,4.0,9.0,87,0.00,,,0.00,,2013-04-28 15:32:00,
2013-04-28 10:42:00,69.0,65.0,-100.00,WNW,284,4.0,9.0,87,0.00,,,0.00,,2013-04-28 15:42:00,
2013-04-28 11:13:00,69.0,65.0,-100.00,NW,322,2.0,6.0,86,0.00,,,0.00,,2013-04-28 16:13:00,
2013-04-28 11:23:00,69.0,65.0,-100.00,NW,322,2.0,6.0,86,0.00,,,0.00,,2013-04-28 16:23:00,
2013-04-28 11:33:00,69.0,65.0,-100.00,NW,322,2.0,6.0,86,0.00,,,0.00,,2013-04-28 16:33:00,
2013-04-28 11:42:00,69.0,65.0,-100.00,NW,322,2.0,6.0,86,0.00,,,0.00,,2013-04-28 16:42:00,
2013-04-28 12:12:00,69.0,66.0,-100.00,SSE,154,2.0,4.0,89,0.02,,,0.02,,2013-04-28 17:12:00,
2013-04-28 12:22:00,69.0,66.0,-100.00,SSE,154,2.0,4.0,89,0.02,,,0.02,,2013-04-28 17:22:00,
2013-04-28 12:32:00,69.0,66.0,-100.00,SSE,154,2.0,4.0,89,0.02,,,0.02,,2013-04-28 17:32:00,
2013-04-28 12:42:00,69.0,66.0,-100.00,SSE,154,2.0,4.0,89,0.02,,,0.02,,2013-04-28 17:42:00,
2013-04-28 13:12:00,72.0,67.0,-100.00,North,8,3.0,5.0,85,0.00,,,0.02,,2013-04-28 18:12:00,
2013-04-28 13:22:00,72.0,67.0,-100.00,North,8,3.0,5.0,85,0.00,,,0.02,,2013-04-28 18:22:00,
2013-04-28 13:32:00,72.0,67.0,-100.00,North,8,3.0,5.0,85,0.00,,,0.02,,2013-04-28 18:32:00,
2013-04-28 13:42:00,72.0,67.0,-100.00,North,8,3.0,5.0,85,0.00,,,0.02,,2013-04-28 18:42:00,
2013-04-28 14:11:00,77.0,65.0,-100.00,North,350,4.0,8.0,67,0.00,,,0.02,,2013-04-28 19:11:00,
2013-04-28 14:22:00,77.0,65.0,-100.00,North,350,4.0,8.0,67,0.00,,,0.02,,2013-04-28 19:22:00,
2013-04-28 14:32:00,77.0,65.0,-100.00,North,350,4.0,8.0,67,0.00,,,0.02,,2013-04-28 19:32:00,
2013-04-28 14:42:00,77.0,65.0,-100.00,North,350,4.0,8.0,67,0.00,,,0.02,,2013-04-28 19:42:00,
2013-04-28 15:12:00,75.0,63.0,-100.00,NNE,25,2.0,7.0,67,0.00,,,0.02,,2013-04-28 20:12:00,
2013-04-28 15:22:00,75.0,63.0,-100.00,NNE,25,2.0,7.0,67,0.00,,,0.02,,2013-04-28 20:22:00,
2013-04-28 15:32:00,75.0,63.0,-100.00,NNE,25,2.0,7.0,67,0.00,,,0.02,,2013-04-28 20:32:00,
2013-04-28 15:42:00,75.0,63.0,-100.00,NNE,25,2.0,7.0,67,0.00,,,0.02,,2013-04-28 20:42:00,
2013-04-28 16:11:00,78.0,64.0,-100.00,ENE,67,2.0,6.0,63,0.00,,,0.02,,2013-04-28 21:11:00,
2013-04-28 16:22:00,78.0,64.0,-100.00,ENE,67,2.0,6.0,63,0.00,,,0.02,,2013-04-28 21:22:00,
2013-04-28 16:33:00,78.0,64.0,-100.00,ENE,67,2.0,6.0,63,0.00,,,0.02,,2013-04-28 21:33:00,
2013-04-28 16:42:00,78.0,64.0,-100.00,ENE,67,2.0,6.0,63,0.00,,,0.02,,2013-04-28 21:42:00,
2013-04-28 17:12:00,76.0,65.0,-100.00,South,169,7.0,10.0,70,0.00,,,0.02,,2013-04-28 22:12:00,
2013-04-28 17:23:00,76.0,65.0,-100.00,South,169,7.0,10.0,70,0.00,,,0.02,,2013-04-28 22:23:00,
2013-04-28 17:33:00,76.0,65.0,-100.00,South,169,7.0,10.0,70,0.00,,,0.02,,2013-04-28 22:33:00,
2013-04-28 17:42:00,76.0,65.0,-100.00,South,169,7.0,10.0,70,0.00,,,0.02,,2013-04-28 22:42:00,
2013-04-28 18:12:00,74.0,65.0,-100.00,South,175,6.0,9.0,74,0.00,,,0.02,,2013-04-28 23:12:00,
2013-04-28 18:22:00,74.0,65.0,-100.00,South,175,6.0,9.0,74,0.00,,,0.02,,2013-04-28 23:22:00,
2013-04-28 18:32:00,74.0,65.0,-100.00,South,175,6.0,9.0,74,0.00,,,0.02,,2013-04-28 23:32:00,
2013-04-28 18:42:00,74.0,65.0,-100.00,South,175,6.0,9.0,74,0.00,,,0.02,,2013-04-28 23:42:00,
2013-04-28 19:11:00,74.0,65.0,-100.00,SSE,165,5.0,8.0,73,0.00,,,0.02,,2013-04-29 00:11:00,
2013-04-28 19:22:00,74.0,65.0,-100.00,SSE,165,5.0,8.0,73,0.00,,,0.02,,2013-04-29 00:22:00,
2013-04-28 19:32:00,74.0,65.0,-100.00,SSE,165,5.0,8.0,73,0.00,,,0.02,,2013-04-29 00:32:00,
2013-04-28 19:42:00,74.0,65.0,-100.00,SSE,165,5.0,8.0,73,0.00,,,0.02,,2013-04-29 00:42:00,
2013-04-28 20:12:00,70.0,66.0,-100.00,SE,140,0.0,0.0,86,0.00,,,0.02,,2013-04-29 01:12:00,
2013-04-28 20:21:00,70.0,66.0,-100.00,SE,140,0.0,0.0,86,0.00,,,0.02,,2013-04-29 01:21:00,
2013-04-28 20:32:00,70.0,66.0,-100.00,SE,140,0.0,0.0,86,0.00,,,0.02,,2013-04-29 01:32:00,
2013-04-28 20:42:00,70.0,66.0,-100.00,SE,140,0.0,0.0,86,0.00,,,0.02,,2013-04-29 01:42:00,
2013-04-28 21:11:00,66.0,64.0,-100.00,NW,310,0.0,0.0,94,0.00,,,0.02,,2013-04-29 02:11:00,
2013-04-28 21:22:00,66.0,64.0,-100.00,NW,310,0.0,0.0,94,0.00,,,0.02,,2013-04-29 02:22:00,
2013-04-28 21:32:00,66.0,64.0,-100.00,NW,310,0.0,0.0,94,0.00,,,0.02,,2013-04-29 02:32:00,
2013-04-28 21:42:00,66.0,64.0,-100.00,NW,310,0.0,0.0,94,0.00,,,0.02,,2013-04-29 02:42:00,
2013-04-28 22:12:00,64.0,63.0,-100.00,ESE,110,0.0,0.0,96,0.00,,,0.02,,2013-04-29 03:12:00,
2013-04-28 22:21:00,64.0,63.0,-100.00,ESE,110,0.0,0.0,96,0.00,,,0.02,,2013-04-29 03:21:00,
2013-04-28 22:33:00,64.0,63.0,-100.00,ESE,110,0.0,0.0,96,0.00,,,0.02,,2013-04-29 03:33:00,
2013-04-28 22:42:00,64.0,63.0,-100.00,ESE,110,0.0,0.0,96,0.00,,,0.02,,2013-04-29 03:42:00,
2013-04-28 23:13:00,62.0,61.0,-100.00,SE,145,0.0,0.0,97,0.00,,,0.02,,2013-04-29 04:13:00,
2013-04-28 23:23:00,62.0,61.0,-100.00,SE,145,0.0,0.0,97,0.00,,,0.02,,2013-04-29 04:23:00,
2013-04-28 23:33:00,62.0,61.0,-100.00,SE,145,0.0,0.0,97,0.00,,,0.02,,2013-04-29 04:33:00,
2013-04-28 23:43:00,62.0,61.0,-100.00,SE,145,0.0,0.0,97,0.00,,,0.02,,2013-04-29 04:43:00,